createdAt,value
2023-03-15T00:02:12.236Z,100660.25
2023-03-15T00:04:39.925Z,100654.16
2023-03-15T00:07:07.606Z,100668.09
2023-03-15T00:09:35.299Z,100673.38
2023-03-15T00:12:02.990Z,100685.63
2023-03-15T00:14:31.600Z,100688.25
2023-03-15T00:16:59.281Z,100690.88
2023-03-15T00:19:28.369Z,100697.88
2023-03-15T00:21:56.084Z,100707.53
2023-03-15T00:24:25.142Z,100711.94
2023-03-15T00:26:52.964Z,100717.19
2023-03-15T00:29:20.886Z,100717.19
2023-03-15T00:31:48.570Z,100726.81
2023-03-15T00:34:16.246Z,100735.56
2023-03-15T00:36:45.365Z,100740.81
2023-03-15T00:39:15.204Z,100739.09
2023-03-15T00:41:45.953Z,100745.22
2023-03-15T00:44:13.750Z,100746.06
2023-03-15T00:46:41.469Z,100739.09
2023-03-15T00:49:09.146Z,100740.84
2023-03-15T00:51:37.471Z,100742.56
2023-03-15T00:54:06.585Z,100745.13
2023-03-15T00:56:34.252Z,100750.38
2023-03-15T00:59:01.950Z,100747.69
2023-03-15T01:01:30.633Z,100757.22
2023-03-15T01:03:58.431Z,100752.81
2023-03-15T01:06:26.983Z,100751.03
2023-03-15T01:08:55.769Z,100751.84
2023-03-15T01:11:26.041Z,100757.94
2023-03-15T01:13:53.847Z,100757.94
2023-03-15T01:16:21.909Z,100760.66
2023-03-15T01:18:51.498Z,100765.91
2023-03-15T01:21:19.321Z,100770.25
2023-03-15T01:23:47.026Z,100767.63
2023-03-15T01:26:15.583Z,100778.19
2023-03-15T01:28:44.728Z,100781.69
2023-03-15T01:31:16.596Z,100786.13
2023-03-15T01:33:44.309Z,100793.09
2023-03-15T01:36:12.085Z,100787.03
2023-03-15T01:38:39.815Z,100793.06
2023-03-15T01:41:07.549Z,100784.31
2023-03-15T01:43:35.755Z,100787.81
2023-03-15T01:46:25.030Z,100784.25
2023-03-15T01:48:56.779Z,100781.53
2023-03-15T01:51:26.338Z,100790.25
2023-03-15T01:53:55.043Z,100789.34
2023-03-15T01:56:23.262Z,100787.59
2023-03-15T01:58:51.212Z,100791.97
2023-03-15T02:01:21.303Z,100783.22
2023-03-15T02:03:51.260Z,100783.19
2023-03-15T02:06:19.661Z,100784.00
2023-03-15T02:08:50.913Z,100785.69
2023-03-15T02:11:20.477Z,100790.19
2023-03-15T02:13:48.593Z,100797.22
2023-03-15T02:16:16.613Z,100796.38
2023-03-15T02:18:45.755Z,100803.38
2023-03-15T02:21:18.876Z,100815.66
2023-03-15T02:23:47.167Z,100815.69
2023-03-15T02:26:18.844Z,100812.19
2023-03-15T02:28:47.940Z,100814.84
2023-03-15T02:31:15.670Z,100823.59
2023-03-15T02:33:44.945Z,100825.41
2023-03-15T02:36:17.742Z,100829.84
2023-03-15T02:38:45.439Z,100830.75
2023-03-15T02:41:13.210Z,100834.28
2023-03-15T02:43:40.927Z,100834.31
2023-03-15T02:46:10.059Z,100850.97
2023-03-15T02:48:37.789Z,100861.53
2023-03-15T02:51:05.867Z,100865.94
2023-03-15T02:53:33.744Z,100874.69
2023-03-15T02:56:01.417Z,100873.88
2023-03-15T02:58:29.151Z,100877.38
2023-03-15T03:00:56.836Z,100877.38
2023-03-15T03:03:25.998Z,100887.00
2023-03-15T03:05:53.683Z,100895.69
2023-03-15T03:08:21.403Z,100900.06
2023-03-15T03:10:49.832Z,100900.91
2023-03-15T03:13:17.572Z,100898.28
2023-03-15T03:15:45.684Z,100893.97
2023-03-15T03:18:13.532Z,100904.44
2023-03-15T03:20:46.019Z,100899.19
2023-03-15T03:23:13.899Z,100896.56
2023-03-15T03:25:41.575Z,100896.56
2023-03-15T03:28:09.245Z,100886.09
2023-03-15T03:30:37.094Z,100900.91
2023-03-15T03:33:04.947Z,100913.16
2023-03-15T03:35:32.878Z,100913.16
2023-03-15T03:38:01.955Z,100918.41
2023-03-15T03:40:29.622Z,100926.28
2023-03-15T03:42:57.357Z,100928.03
2023-03-15T03:45:25.077Z,100938.50
2023-03-15T03:47:53.127Z,100942.00
2023-03-15T03:50:22.006Z,100949.00
2023-03-15T03:52:49.749Z,100963.06
2023-03-15T03:55:19.035Z,100962.19
2023-03-15T03:57:46.725Z,100957.88
2023-03-15T04:00:15.414Z,100960.47
2023-03-15T04:02:43.710Z,100962.25
2023-03-15T04:05:11.473Z,100963.06
2023-03-15T04:07:39.255Z,100963.97
2023-03-15T04:10:07.762Z,100972.75
2023-03-15T04:12:36.881Z,100970.97
2023-03-15T04:15:05.032Z,100991.13
2023-03-15T04:17:32.724Z,100993.75
2023-03-15T04:20:05.687Z,101000.72
2023-03-15T04:22:34.744Z,101002.47
2023-03-15T04:25:02.876Z,101003.38
2023-03-15T04:27:30.679Z,101007.78
2023-03-15T04:29:59.712Z,101019.09
2023-03-15T04:32:27.390Z,101026.97
2023-03-15T04:34:55.896Z,101032.25
2023-03-15T04:37:23.561Z,101037.50
2023-03-15T04:39:52.497Z,101053.22
2023-03-15T04:42:20.289Z,101047.13
2023-03-15T04:44:48.031Z,101050.59
2023-03-15T04:47:17.072Z,101035.75
2023-03-15T04:49:44.791Z,101034.84
2023-03-15T04:52:12.697Z,101033.09
2023-03-15T04:54:40.397Z,101035.72
2023-03-15T04:57:08.267Z,101034.00
2023-03-15T04:59:35.925Z,101037.50
2023-03-15T05:02:04.132Z,101049.75
2023-03-15T05:04:33.255Z,101056.75
2023-03-15T05:07:00.924Z,101061.13
2023-03-15T05:09:28.599Z,101066.38
2023-03-15T05:11:56.291Z,101069.03
2023-03-15T05:14:24.034Z,101078.59
2023-03-15T05:16:55.296Z,101087.28
2023-03-15T05:19:23.394Z,101089.06
2023-03-15T05:21:54.608Z,101091.63
2023-03-15T05:24:22.337Z,101085.41
2023-03-15T05:26:50.002Z,101075.72
2023-03-15T05:29:17.690Z,101077.44
2023-03-15T05:31:45.382Z,101072.09
2023-03-15T05:34:13.174Z,101075.59
2023-03-15T05:36:41.749Z,101072.06
2023-03-15T05:39:11.433Z,101079.06
2023-03-15T05:41:39.114Z,101080.81
2023-03-15T05:44:06.860Z,101089.50
2023-03-15T05:46:34.620Z,101086.84
2023-03-15T05:49:02.276Z,101097.28
2023-03-15T05:51:29.944Z,101098.09
2023-03-15T05:53:57.594Z,101096.41
2023-03-15T05:56:26.694Z,101102.47
2023-03-15T05:58:54.359Z,101104.28
2023-03-15T06:01:22.053Z,101122.66
2023-03-15T06:03:49.826Z,101129.66
2023-03-15T06:06:17.571Z,101130.56
2023-03-15T06:08:45.275Z,101131.44
2023-03-15T06:11:12.935Z,101136.69
2023-03-15T06:13:41.962Z,101133.16
2023-03-15T06:16:09.626Z,101134.91
2023-03-15T06:18:37.319Z,101141.91
2023-03-15T06:21:05.201Z,101156.81
2023-03-15T06:23:32.895Z,101173.53
2023-03-15T06:26:00.571Z,101199.00
2023-03-15T06:28:28.252Z,101201.75
2023-03-15T06:30:57.337Z,101207.97
2023-03-15T06:33:25.410Z,101207.13
2023-03-15T06:35:53.146Z,101201.88
2023-03-15T06:38:20.968Z,101206.25
2023-03-15T06:40:48.687Z,101195.69
2023-03-15T06:43:19.440Z,101198.31
2023-03-15T06:45:47.290Z,101189.56
2023-03-15T06:48:16.425Z,101203.50
2023-03-15T06:50:47.343Z,101202.59
2023-03-15T06:53:15.602Z,101200.81
2023-03-15T06:55:43.290Z,101199.91
2023-03-15T06:58:10.990Z,101206.00
2023-03-15T07:00:38.794Z,101219.91
2023-03-15T07:03:06.524Z,101216.41
2023-03-15T07:05:35.642Z,101214.66
2023-03-15T07:08:03.333Z,101215.47
2023-03-15T07:10:31.181Z,101220.69
2023-03-15T07:12:58.882Z,101213.72
2023-03-15T07:15:26.542Z,101226.81
2023-03-15T07:17:54.313Z,101229.38
2023-03-15T07:20:22.045Z,101228.50
2023-03-15T07:22:51.199Z,101233.72
2023-03-15T07:25:23.782Z,101238.06
2023-03-15T07:27:51.735Z,101245.00
2023-03-15T07:30:19.762Z,101234.44
2023-03-15T07:32:47.773Z,101239.63
2023-03-15T07:35:16.861Z,101239.63
2023-03-15T07:37:44.989Z,101243.94
2023-03-15T07:40:16.043Z,101247.44
2023-03-15T07:42:43.962Z,101255.28
2023-03-15T07:45:13.243Z,101258.72
2023-03-15T07:47:40.916Z,101262.22
2023-03-15T07:50:09.629Z,101272.69
2023-03-15T07:52:37.349Z,101261.31
2023-03-15T07:55:08.284Z,101262.97
2023-03-15T07:57:37.365Z,101272.50
2023-03-15T08:00:06.824Z,101285.53
2023-03-15T08:02:34.571Z,101296.78
2023-03-15T08:05:02.237Z,101298.47
2023-03-15T08:07:29.958Z,101301.97
2023-03-15T08:09:57.956Z,101333.59
2023-03-15T08:12:25.752Z,101347.72
2023-03-15T08:14:54.799Z,101343.47
2023-03-15T08:17:22.516Z,101336.47
2023-03-15T08:19:50.221Z,101339.13
2023-03-15T08:22:17.893Z,101348.75
2023-03-15T08:24:45.936Z,101347.84
2023-03-15T08:27:13.611Z,101336.50
2023-03-15T08:29:41.391Z,101333.91
2023-03-15T08:32:10.878Z,101336.53
2023-03-15T08:34:38.783Z,101339.16
2023-03-15T08:37:06.490Z,101344.41
2023-03-15T08:39:36.299Z,101345.25
2023-03-15T08:42:04.131Z,101350.34
2023-03-15T08:44:31.842Z,101359.06
2023-03-15T08:46:59.633Z,101371.25
2023-03-15T08:49:28.715Z,101360.75
2023-03-15T08:51:56.399Z,101367.72
2023-03-15T08:54:25.559Z,101374.69
2023-03-15T08:56:53.256Z,101379.94
2023-03-15T08:59:31.248Z,101378.22
2023-03-15T09:02:00.867Z,101379.09
2023-03-15T09:04:30.060Z,101381.72
2023-03-15T09:06:57.861Z,101379.09
2023-03-15T09:09:25.654Z,101384.34
2023-03-15T09:11:53.340Z,101396.63
2023-03-15T09:14:21.075Z,101394.09
2023-03-15T09:16:48.808Z,101403.72
2023-03-15T09:19:16.502Z,101409.78
2023-03-15T09:21:47.075Z,101414.22
2023-03-15T09:24:14.787Z,101408.03
2023-03-15T09:26:42.509Z,101417.63
2023-03-15T09:29:10.211Z,101415.00
2023-03-15T09:31:37.901Z,101419.38
2023-03-15T09:34:05.898Z,101419.41
2023-03-15T09:36:33.720Z,101418.53
2023-03-15T09:39:02.828Z,101431.72
2023-03-15T09:41:40.993Z,101436.09
2023-03-15T09:44:13.868Z,101433.50
2023-03-15T09:46:43.433Z,101435.28
2023-03-15T09:49:13.712Z,101438.84
2023-03-15T09:51:43.403Z,101444.06
2023-03-15T09:54:13.847Z,101447.56
2023-03-15T09:56:45.633Z,101438.81
2023-03-15T09:59:13.516Z,101437.88
2023-03-15T10:01:42.006Z,101410.72
2023-03-15T10:04:13.161Z,101420.38
2023-03-15T10:06:46.072Z,101407.28
2023-03-15T10:09:17.631Z,101423.84
2023-03-15T10:11:48.811Z,101423.91
2023-03-15T10:14:22.767Z,101436.13
2023-03-15T10:16:51.065Z,101433.50
2023-03-15T10:19:22.950Z,101440.50
2023-03-15T10:21:54.279Z,101434.34
2023-03-15T10:24:25.128Z,101433.50
2023-03-15T10:26:52.820Z,101431.69
2023-03-15T10:29:21.923Z,101436.88
2023-03-15T10:31:52.586Z,101436.84
2023-03-15T10:34:21.883Z,101441.19
2023-03-15T10:36:50.357Z,101452.53
2023-03-15T10:39:19.295Z,101451.59
2023-03-15T10:41:49.128Z,101453.25
2023-03-15T10:44:18.354Z,101462.03
2023-03-15T10:47:03.002Z,101462.03
2023-03-15T10:49:36.261Z,101476.03
2023-03-15T10:52:04.223Z,101488.31
2023-03-15T10:54:32.920Z,101492.78
2023-03-15T10:57:03.678Z,101496.34
2023-03-15T10:59:32.216Z,101507.78
2023-03-15T11:02:16.444Z,101522.66
2023-03-15T11:04:44.313Z,101529.63
2023-03-15T11:07:14.036Z,101534.91
2023-03-15T11:09:42.633Z,101528.84
2023-03-15T11:12:12.267Z,101530.53
2023-03-15T11:14:41.131Z,101520.91
2023-03-15T11:17:12.737Z,101522.59
2023-03-15T11:19:42.808Z,101513.78
2023-03-15T11:22:12.292Z,101521.66
2023-03-15T11:24:40.070Z,101526.00
2023-03-15T11:27:13.857Z,101521.59
2023-03-15T11:29:41.745Z,101520.75
2023-03-15T11:32:13.688Z,101536.56
2023-03-15T11:34:43.286Z,101543.75
2023-03-15T11:37:15.430Z,101540.38
2023-03-15T11:39:46.230Z,101520.38
2023-03-15T11:42:22.069Z,101510.69
2023-03-15T11:44:51.063Z,101535.09
2023-03-15T11:47:24.618Z,101550.78
2023-03-15T11:49:53.025Z,101543.75
2023-03-15T11:52:21.789Z,101547.22
2023-03-15T11:54:49.487Z,101542.81
2023-03-15T11:57:43.817Z,101546.25
2023-03-15T12:00:26.969Z,101544.44
2023-03-15T12:02:55.613Z,101541.81
2023-03-15T12:05:44.529Z,101540.09
2023-03-15T12:08:25.115Z,101548.88
2023-03-15T12:10:53.400Z,101546.22
2023-03-15T12:13:24.734Z,101553.19
2023-03-15T12:15:53.145Z,101546.13
2023-03-15T12:18:34.505Z,101541.81
2023-03-15T12:21:23.393Z,101544.41
2023-03-15T12:23:58.898Z,101553.16
2023-03-15T12:26:28.422Z,101552.25
2023-03-15T12:29:09.712Z,101555.72
2023-03-15T12:31:55.584Z,101554.00
2023-03-15T12:34:38.260Z,101547.84
2023-03-15T12:37:07.782Z,101540.84
2023-03-15T12:39:41.507Z,101558.25
2023-03-15T12:42:14.179Z,101541.53
2023-03-15T12:44:43.790Z,101553.81
2023-03-15T12:47:11.552Z,101556.34
2023-03-15T12:49:41.231Z,101547.63
2023-03-15T12:52:26.725Z,101544.09
2023-03-15T12:54:56.541Z,101555.41
2023-03-15T12:57:25.670Z,101552.72
2023-03-15T12:59:56.059Z,101553.56
2023-03-15T13:02:41.740Z,101564.00
2023-03-15T13:05:17.969Z,101561.50
2023-03-15T13:07:55.880Z,101560.66
2023-03-15T13:10:38.250Z,101576.41
2023-03-15T13:13:11.239Z,101572.88
2023-03-15T13:15:43.036Z,101571.94
2023-03-15T13:18:18.029Z,101573.72
2023-03-15T13:20:53.218Z,101581.66
2023-03-15T13:23:22.351Z,101586.13
2023-03-15T13:26:00.191Z,101591.38
2023-03-15T13:28:37.119Z,101572.03
2023-03-15T13:31:14.281Z,101581.50
2023-03-15T13:33:42.074Z,101583.97
2023-03-15T13:36:13.503Z,101581.31
2023-03-15T13:38:41.902Z,101581.19
2023-03-15T13:41:17.289Z,101580.28
2023-03-15T13:43:45.281Z,101581.19
2023-03-15T13:46:14.447Z,101581.13
2023-03-15T13:48:42.932Z,101581.97
2023-03-15T13:51:14.128Z,101575.88
2023-03-15T13:53:49.973Z,101583.72
2023-03-15T13:56:19.033Z,101584.50
2023-03-15T13:58:46.715Z,101580.91
2023-03-15T14:01:16.037Z,101588.69
2023-03-15T14:03:44.238Z,101588.63
2023-03-15T14:06:13.355Z,101590.28
2023-03-15T14:08:41.196Z,101591.81
2023-03-15T14:11:11.287Z,101589.94
2023-03-15T14:13:48.424Z,101598.53
2023-03-15T14:16:19.011Z,101593.19
2023-03-15T14:18:51.218Z,101608.03
2023-03-15T14:21:20.397Z,101608.69
2023-03-15T14:23:49.147Z,101605.03
2023-03-15T14:26:18.709Z,101614.63
2023-03-15T14:28:49.877Z,101607.38
2023-03-15T14:31:24.100Z,101618.59
2023-03-15T14:33:55.799Z,101609.59
2023-03-15T14:36:24.935Z,101618.22
2023-03-15T14:38:53.418Z,101608.53
2023-03-15T14:41:25.270Z,101615.03
2023-03-15T14:43:53.183Z,101611.84
2023-03-15T14:46:22.225Z,101617.56
2023-03-15T14:48:50.480Z,101624.56
2023-03-15T14:51:20.078Z,101628.69
2023-03-15T14:53:47.942Z,101622.34
2023-03-15T14:56:15.645Z,101631.22
2023-03-15T14:58:43.455Z,101621.75
2023-03-15T15:01:11.758Z,101632.56
2023-03-15T15:03:41.442Z,101631.88
2023-03-15T15:06:10.509Z,101629.72
2023-03-15T15:08:39.963Z,101633.44
2023-03-15T15:11:08.534Z,101639.66
2023-03-15T15:13:36.557Z,101639.47
2023-03-15T15:16:04.761Z,101643.94
2023-03-15T15:18:33.609Z,101649.16
2023-03-15T15:21:03.755Z,101647.38
2023-03-15T15:23:32.149Z,101654.81
2023-03-15T15:26:01.217Z,101656.69
2023-03-15T15:28:35.914Z,101662.94
2023-03-15T15:31:05.498Z,101660.44
2023-03-15T15:33:33.987Z,101651.84
2023-03-15T15:36:03.214Z,101674.81
2023-03-15T15:38:32.932Z,101670.31
2023-03-15T15:41:00.697Z,101673.91
2023-03-15T15:43:28.761Z,101674.00
2023-03-15T15:45:56.640Z,101680.25
2023-03-15T15:48:24.344Z,101683.00
2023-03-15T15:50:52.032Z,101680.44
2023-03-15T15:53:21.085Z,101685.69
2023-03-15T15:55:48.809Z,101686.69
2023-03-15T15:58:17.522Z,101678.94
2023-03-15T16:00:45.223Z,101693.94
2023-03-15T16:03:15.015Z,101688.34
2023-03-15T16:05:42.974Z,101689.69
2023-03-15T16:08:13.369Z,101685.88
2023-03-15T16:10:42.607Z,101687.34
2023-03-15T16:13:10.400Z,101687.16
2023-03-15T16:15:38.273Z,101689.66
2023-03-15T16:18:09.820Z,101702.72
2023-03-15T16:20:37.658Z,101699.97
2023-03-15T16:23:05.400Z,101699.88
2023-03-15T16:25:34.310Z,101701.63
2023-03-15T16:28:03.668Z,101699.00
2023-03-15T16:30:32.169Z,101711.34
2023-03-15T16:32:59.956Z,101707.03
2023-03-15T16:35:30.822Z,101710.53
2023-03-15T16:37:59.107Z,101706.28
2023-03-15T16:40:27.830Z,101718.59
2023-03-15T16:42:56.431Z,101721.34
2023-03-15T16:45:25.497Z,101722.31
2023-03-15T16:47:53.382Z,101731.19
2023-03-15T16:50:21.372Z,101725.97
2023-03-15T16:52:49.829Z,101726.09
2023-03-15T16:55:19.075Z,101725.34
2023-03-15T16:57:47.245Z,101736.00
2023-03-15T17:00:16.662Z,101743.13
2023-03-15T17:02:47.068Z,101749.44
2023-03-15T17:05:18.893Z,101744.34
2023-03-15T17:07:47.134Z,101756.78
2023-03-15T17:10:19.907Z,101757.75
2023-03-15T17:12:47.602Z,101754.34
2023-03-15T17:15:15.382Z,101762.38
2023-03-15T17:17:43.446Z,101774.81
2023-03-15T17:20:13.884Z,101777.59
2023-03-15T17:22:42.431Z,101766.28
2023-03-15T17:25:10.566Z,101773.38
2023-03-15T17:27:39.325Z,101779.63
2023-03-15T17:30:15.746Z,101778.00
2023-03-15T17:32:43.548Z,101779.78
2023-03-15T17:35:13.547Z,101781.63
2023-03-15T17:37:44.497Z,101787.81
2023-03-15T17:40:18.580Z,101790.50
2023-03-15T17:42:46.258Z,101788.75
2023-03-15T17:45:16.377Z,101793.16
2023-03-15T17:47:44.115Z,101793.19
2023-03-15T17:50:13.524Z,101788.00
2023-03-15T17:52:41.306Z,101790.66
2023-03-15T17:55:14.859Z,101793.38
2023-03-15T17:57:45.782Z,101794.25
2023-03-15T18:00:21.381Z,101796.06
2023-03-15T18:02:55.320Z,101796.97
2023-03-15T18:05:26.299Z,101804.03
2023-03-15T18:08:00.891Z,101804.03
2023-03-15T18:10:32.700Z,101808.44
2023-03-15T18:13:00.500Z,101810.25
2023-03-15T18:15:28.241Z,101809.38
2023-03-15T18:17:55.910Z,101809.41
2023-03-15T18:20:25.837Z,101811.16
2023-03-15T18:22:53.514Z,101815.59
2023-03-15T18:25:22.428Z,101811.25
2023-03-15T18:27:50.435Z,101816.50
2023-03-15T18:30:19.472Z,101816.53
2023-03-15T18:32:47.167Z,101817.44
2023-03-15T18:35:16.811Z,101827.09
2023-03-15T18:37:45.864Z,101826.22
2023-03-15T18:40:14.647Z,101832.38
2023-03-15T18:42:42.341Z,101834.13
2023-03-15T18:45:12.632Z,101829.75
2023-03-15T18:47:40.411Z,101838.53
2023-03-15T18:50:10.984Z,101842.06
2023-03-15T18:52:38.852Z,101842.91
2023-03-15T18:55:08.871Z,101828.03
2023-03-15T18:57:36.846Z,101840.28
2023-03-15T19:00:12.982Z,101842.06
2023-03-15T19:02:41.828Z,101844.72
2023-03-15T19:05:09.766Z,101842.97
2023-03-15T19:07:38.537Z,101836.84
2023-03-15T19:10:08.748Z,101847.31
2023-03-15T19:12:36.879Z,101849.94
2023-03-15T19:15:05.573Z,101852.56
2023-03-15T19:17:33.287Z,101849.03
2023-03-15T19:20:01.007Z,101850.75
2023-03-15T19:22:30.938Z,101851.59
2023-03-15T19:24:58.639Z,101856.84
2023-03-15T19:27:27.947Z,101857.72
2023-03-15T19:29:55.668Z,101855.09
2023-03-15T19:32:24.273Z,101861.25
2023-03-15T19:34:52.007Z,101861.19
2023-03-15T19:37:19.757Z,101863.88
2023-03-15T19:39:47.430Z,101863.88
2023-03-15T19:42:15.131Z,101865.63
2023-03-15T19:44:44.461Z,101870.03
2023-03-15T19:47:12.222Z,101869.16
2023-03-15T19:49:39.889Z,101865.63
2023-03-15T19:52:07.627Z,101878.75
2023-03-15T19:54:35.328Z,101873.50
2023-03-15T19:57:03.001Z,101874.38
2023-03-15T19:59:30.667Z,101870.88
2023-03-15T20:01:59.819Z,101888.41
2023-03-15T20:04:28.135Z,101883.16
2023-03-15T20:06:55.840Z,101885.78
2023-03-15T20:09:23.577Z,101894.53
2023-03-15T20:11:52.053Z,101886.66
2023-03-15T20:14:20.794Z,101894.53
2023-03-15T20:16:48.523Z,101888.41
2023-03-15T20:19:17.589Z,101897.19
2023-03-15T20:21:45.298Z,101898.94
2023-03-15T20:24:13.000Z,101895.44
2023-03-15T20:26:40.810Z,101905.09
2023-03-15T20:29:08.840Z,101899.84
2023-03-15T20:31:36.566Z,101896.34
2023-03-15T20:34:05.673Z,101899.84
2023-03-15T20:36:34.897Z,101899.84
2023-03-15T20:39:04.189Z,101906.84
2023-03-15T20:41:32.918Z,101906.84
2023-03-15T20:44:01.236Z,101906.84
2023-03-15T20:46:29.544Z,101902.47
2023-03-15T20:48:57.415Z,101908.63
2023-03-15T20:51:25.088Z,101916.50
2023-03-15T20:53:54.151Z,101916.50
2023-03-15T20:56:21.896Z,101911.25
2023-03-15T20:58:49.682Z,101913.00
2023-03-15T21:01:17.467Z,101913.00
2023-03-15T21:03:45.478Z,101914.78
2023-03-15T21:06:13.518Z,101916.53
2023-03-15T21:08:41.537Z,101917.41
2023-03-15T21:11:10.663Z,101921.78
2023-03-15T21:13:38.341Z,101918.25
2023-03-15T21:16:06.719Z,101921.78
2023-03-15T21:18:35.914Z,101922.59
2023-03-15T21:21:04.882Z,101915.63
2023-03-15T21:23:32.907Z,101926.09
2023-03-15T21:26:01.912Z,101919.97
2023-03-15T21:28:31.033Z,101919.97
2023-03-15T21:30:58.866Z,101920.03
2023-03-15T21:33:27.857Z,101923.50
2023-03-15T21:35:55.759Z,101920.03
2023-03-15T21:38:23.602Z,101913.00
2023-03-15T21:40:52.426Z,101912.19
2023-03-15T21:43:20.668Z,101925.31
2023-03-15T21:45:49.897Z,101919.22
2023-03-15T21:48:18.399Z,101920.94
2023-03-15T21:50:46.140Z,101918.31
2023-03-15T21:53:13.878Z,101924.47
2023-03-15T21:55:41.541Z,101920.06
2023-03-15T21:58:09.781Z,101926.19
2023-03-15T22:00:38.092Z,101923.59
2023-03-15T22:03:07.130Z,101928.84
2023-03-15T22:05:34.919Z,101927.13
2023-03-15T22:08:02.682Z,101923.59
2023-03-15T22:10:30.388Z,101929.72
2023-03-15T22:12:58.092Z,101930.63
2023-03-15T22:15:25.775Z,101929.75
2023-03-15T22:17:53.450Z,101923.66
2023-03-15T22:20:24.954Z,101927.13
2023-03-15T22:22:52.802Z,101920.06
2023-03-15T22:25:20.779Z,101920.94
2023-03-15T22:27:48.458Z,101914.78
2023-03-15T22:30:17.636Z,101924.41
2023-03-15T22:32:45.378Z,101921.78
2023-03-15T22:35:13.171Z,101927.03
2023-03-15T22:37:42.190Z,101933.19
2023-03-15T22:40:11.124Z,101923.56
2023-03-15T22:42:38.867Z,101932.28
2023-03-15T22:45:07.487Z,101924.41
2023-03-15T22:47:35.263Z,101922.66
2023-03-15T22:50:03.023Z,101928.75
2023-03-15T22:52:30.728Z,101930.53
2023-03-15T22:54:59.756Z,101935.81
2023-03-15T22:57:27.537Z,101931.44
2023-03-15T22:59:56.184Z,101931.44
2023-03-15T23:02:24.877Z,101935.81
2023-03-15T23:04:52.760Z,101941.09
2023-03-15T23:07:20.468Z,101946.34
2023-03-15T23:09:48.154Z,101946.34
2023-03-15T23:12:19.898Z,101951.59
2023-03-15T23:14:52.173Z,101957.72
2023-03-15T23:17:19.903Z,101953.38
2023-03-15T23:19:47.563Z,101956.88
2023-03-15T23:22:15.490Z,101951.63
2023-03-15T23:24:45.944Z,101949.91
2023-03-15T23:27:13.797Z,101956.00
2023-03-15T23:29:53.638Z,101955.16
2023-03-15T23:32:22.047Z,101956.00
2023-03-15T23:34:49.916Z,101950.75
2023-03-15T23:37:17.709Z,101955.16
2023-03-15T23:39:45.619Z,101955.16
2023-03-15T23:42:13.744Z,101965.66
2023-03-15T23:44:43.288Z,101956.06
2023-03-15T23:47:12.322Z,101956.03
2023-03-15T23:49:40.008Z,101959.53
2023-03-15T23:52:08.264Z,101970.06
2023-03-15T23:54:40.240Z,101963.91
2023-03-15T23:57:08.073Z,101956.88
2023-03-15T23:59:35.910Z,101970.06
